sensor_id;sensor_type;location;lat;lon;timestamp;pressure;altitude;pressure_sealevel;temperature;humidity
53719;BME280;39616;48.872;9.390;2022-10-13T00:01:43;98881.44;;;8.65;100.00
53719;BME280;39616;48.872;9.390;2022-10-13T00:04:14;98888.75;;;8.64;100.00
53719;BME280;39616;48.872;9.390;2022-10-13T00:06:44;98880.38;;;8.51;100.00
53719;BME280;39616;48.872;9.390;2022-10-13T00:09:15;98884.16;;;8.55;100.00
53719;BME280;39616;48.872;9.390;2022-10-13T00:11:45;98883.09;;;8.51;100.00
53719;BME280;39616;48.872;9.390;2022-10-13T00:14:18;98888.22;;;8.47;100.00
53719;BME280;39616;48.872;9.390;2022-10-13T00:16:48;98897.41;;;8.51;100.00
53719;BME280;39616;48.872;9.390;2022-10-13T00:19:19;98899.28;;;8.61;100.00
53719;BME280;39616;48.872;9.390;2022-10-13T00:21:49;98903.34;;;8.63;100.00
53719;BME280;39616;48.872;9.390;2022-10-13T00:24:19;98902.56;;;8.63;100.00
53719;BME280;39616;48.872;9.390;2022-10-13T00:26:50;98900.38;;;8.65;100.00
53719;BME280;39616;48.872;9.390;2022-10-13T00:29:21;98905.25;;;8.63;100.00
53719;BME280;39616;48.872;9.390;2022-10-13T00:31:51;98898.22;;;8.62;100.00
53719;BME280;39616;48.872;9.390;2022-10-13T00:34:21;98899.84;;;8.68;100.00
53719;BME280;39616;48.872;9.390;2022-10-13T00:36:52;98895.25;;;8.68;100.00
53719;BME280;39616;48.872;9.390;2022-10-13T00:39:22;98898.22;;;8.67;100.00
53719;BME280;39616;48.872;9.390;2022-10-13T00:41:52;98899.56;;;8.64;100.00
53719;BME280;39616;48.872;9.390;2022-10-13T00:44:57;98898.50;;;8.65;100.00
53719;BME280;39616;48.872;9.390;2022-10-13T00:47:38;98903.09;;;8.60;100.00
53719;BME280;39616;48.872;9.390;2022-10-13T00:50:12;98897.69;;;8.60;100.00
53719;BME280;39616;48.872;9.390;2022-10-13T00:52:44;98896.06;;;8.59;100.00
53719;BME280;39616;48.872;9.390;2022-10-13T00:55:18;98895.78;;;8.55;100.00
53719;BME280;39616;48.872;9.390;2022-10-13T00:57:50;98902.00;;;8.56;100.00
53719;BME280;39616;48.872;9.390;2022-10-13T01:00:25;98898.22;;;8.52;100.00
53719;BME280;39616;48.872;9.390;2022-10-13T01:02:55;98896.59;;;8.51;100.00
53719;BME280;39616;48.872;9.390;2022-10-13T01:05:26;98891.97;;;8.46;100.00
53719;BME280;39616;48.872;9.390;2022-10-13T01:07:57;98894.69;;;8.41;100.00
53719;BME280;39616;48.872;9.390;2022-10-13T01:10:34;98896.03;;;8.38;100.00
53719;BME280;39616;48.872;9.390;2022-10-13T01:13:21;98901.72;;;8.42;100.00
53719;BME280;39616;48.872;9.390;2022-10-13T01:16:16;98899.00;;;8.42;100.00
53719;BME280;39616;48.872;9.390;2022-10-13T01:25:03;98885.19;;;8.33;100.00
53719;BME280;39616;48.872;9.390;2022-10-13T01:27:49;98887.09;;;8.33;100.00
53719;BME280;39616;48.872;9.390;2022-10-13T01:30:25;98890.56;;;8.28;100.00
53719;BME280;39616;48.872;9.390;2022-10-13T01:36:14;98882.47;;;8.23;100.00
53719;BME280;39616;48.872;9.390;2022-10-13T01:41:37;98877.34;;;8.21;100.00
53719;BME280;39616;48.872;9.390;2022-10-13T01:44:29;98876.78;;;8.24;100.00
53719;BME280;39616;48.872;9.390;2022-10-13T01:47:02;98873.81;;;8.26;100.00
53719;BME280;39616;48.872;9.390;2022-10-13T01:49:34;98870.06;;;8.32;100.00
53719;BME280;39616;48.872;9.390;2022-10-13T01:52:08;98872.25;;;8.40;100.00
53719;BME280;39616;48.872;9.390;2022-10-13T01:54:39;98868.75;;;8.45;100.00
53719;BME280;39616;48.872;9.390;2022-10-13T01:57:32;98861.47;;;8.51;100.00
53719;BME280;39616;48.872;9.390;2022-10-13T02:00:12;98855.78;;;8.52;100.00
53719;BME280;39616;48.872;9.390;2022-10-13T02:08:23;98855.50;;;8.74;100.00
53719;BME280;39616;48.872;9.390;2022-10-13T02:13:33;98851.16;;;8.93;100.00
53719;BME280;39616;48.872;9.390;2022-10-13T02:16:05;98847.63;;;9.03;100.00
53719;BME280;39616;48.872;9.390;2022-10-13T02:18:37;98849.78;;;9.11;100.00
53719;BME280;39616;48.872;9.390;2022-10-13T02:21:08;98847.06;;;9.16;100.00
53719;BME280;39616;48.872;9.390;2022-10-13T02:23:38;98850.28;;;9.24;100.00
53719;BME280;39616;48.872;9.390;2022-10-13T02:26:09;98841.88;;;9.30;100.00
53719;BME280;39616;48.872;9.390;2022-10-13T02:28:40;98852.16;;;9.33;100.00
53719;BME280;39616;48.872;9.390;2022-10-13T02:31:11;98853.50;;;9.41;100.00
53719;BME280;39616;48.872;9.390;2022-10-13T02:33:41;98850.22;;;9.44;100.00
53719;BME280;39616;48.872;9.390;2022-10-13T02:36:11;98857.78;;;9.52;100.00
53719;BME280;39616;48.872;9.390;2022-10-13T02:38:42;98855.06;;;9.57;100.00
53719;BME280;39616;48.872;9.390;2022-10-13T02:41:12;98852.34;;;9.62;100.00
53719;BME280;39616;48.872;9.390;2022-10-13T02:43:42;98862.88;;;9.69;100.00
53719;BME280;39616;48.872;9.390;2022-10-13T02:46:12;98860.13;;;9.74;100.00
53719;BME280;39616;48.872;9.390;2022-10-13T02:48:43;98852.56;;;9.76;100.00
53719;BME280;39616;48.872;9.390;2022-10-13T02:51:13;98864.16;;;9.82;100.00
53719;BME280;39616;48.872;9.390;2022-10-13T02:53:43;98857.91;;;9.86;100.00
53719;BME280;39616;48.872;9.390;2022-10-13T02:56:14;98858.44;;;9.88;100.00
53719;BME280;39616;48.872;9.390;2022-10-13T02:58:44;98854.38;;;9.91;100.00
53719;BME280;39616;48.872;9.390;2022-10-13T03:01:15;98854.38;;;9.91;100.00
53719;BME280;39616;48.872;9.390;2022-10-13T03:03:45;98852.72;;;9.95;100.00
53719;BME280;39616;48.872;9.390;2022-10-13T03:06:16;98857.84;;;10.02;100.00
53719;BME280;39616;48.872;9.390;2022-10-13T03:08:46;98848.06;;;10.01;100.00
53719;BME280;39616;48.872;9.390;2022-10-13T03:11:16;98861.59;;;10.06;100.00
53719;BME280;39616;48.872;9.390;2022-10-13T03:13:47;98850.78;;;10.06;100.00
53719;BME280;39616;48.872;9.390;2022-10-13T03:16:17;98842.91;;;10.09;100.00
53719;BME280;39616;48.872;9.390;2022-10-13T03:18:47;98837.72;;;10.13;100.00
53719;BME280;39616;48.872;9.390;2022-10-13T03:21:18;98842.00;;;10.19;100.00
53719;BME280;39616;48.872;9.390;2022-10-13T03:23:48;98847.09;;;10.31;100.00
53719;BME280;39616;48.872;9.390;2022-10-13T03:26:18;98841.34;;;10.43;100.00
53719;BME280;39616;48.872;9.390;2022-10-13T03:28:49;98846.66;;;10.53;100.00
53719;BME280;39616;48.872;9.390;2022-10-13T03:31:20;98829.84;;;10.56;100.00
53719;BME280;39616;48.872;9.390;2022-10-13T03:33:50;98828.22;;;10.55;100.00
53719;BME280;39616;48.872;9.390;2022-10-13T03:36:21;98836.66;;;10.53;100.00
53719;BME280;39616;48.872;9.390;2022-10-13T03:38:51;98835.25;;;10.56;100.00
53719;BME280;39616;48.872;9.390;2022-10-13T03:41:21;98827.69;;;10.53;100.00
53719;BME280;39616;48.872;9.390;2022-10-13T03:43:52;98824.41;;;10.56;100.00
53719;BME280;39616;48.872;9.390;2022-10-13T03:46:25;98822.22;;;10.58;100.00
53719;BME280;39616;48.872;9.390;2022-10-13T03:48:56;98814.38;;;10.56;100.00
53719;BME280;39616;48.872;9.390;2022-10-13T03:51:27;98813.06;;;10.54;100.00
53719;BME280;39616;48.872;9.390;2022-10-13T03:53:57;98817.94;;;10.52;100.00
53719;BME280;39616;48.872;9.390;2022-10-13T03:56:28;98808.75;;;10.48;100.00
53719;BME280;39616;48.872;9.390;2022-10-13T03:58:59;98818.00;;;10.42;100.00
53719;BME280;39616;48.872;9.390;2022-10-13T04:01:30;98819.69;;;10.37;100.00
53719;BME280;39616;48.872;9.390;2022-10-13T04:04:01;98811.59;;;10.32;100.00
53719;BME280;39616;48.872;9.390;2022-10-13T04:06:32;98814.56;;;10.31;100.00
53719;BME280;39616;48.872;9.390;2022-10-13T04:09:02;98814.88;;;10.29;100.00
53719;BME280;39616;48.872;9.390;2022-10-13T04:11:32;98811.63;;;10.27;100.00
53719;BME280;39616;48.872;9.390;2022-10-13T04:14:03;98819.22;;;10.25;100.00
53719;BME280;39616;48.872;9.390;2022-10-13T04:16:35;98823.28;;;10.23;100.00
53719;BME280;39616;48.872;9.390;2022-10-13T04:19:05;98818.94;;;10.22;100.00
53719;BME280;39616;48.872;9.390;2022-10-13T04:21:35;98816.53;;;10.20;100.00
53719;BME280;39616;48.872;9.390;2022-10-13T04:24:06;98820.84;;;10.21;100.00
53719;BME280;39616;48.872;9.390;2022-10-13T04:26:37;98818.41;;;10.25;100.00
53719;BME280;39616;48.872;9.390;2022-10-13T04:29:09;98816.78;;;10.29;100.00
53719;BME280;39616;48.872;9.390;2022-10-13T04:31:40;98813.75;;;10.30;100.00
53719;BME280;39616;48.872;9.390;2022-10-13T04:34:12;98809.69;;;10.33;100.00
53719;BME280;39616;48.872;9.390;2022-10-13T04:36:43;98814.00;;;10.34;100.00
53719;BME280;39616;48.872;9.390;2022-10-13T04:39:13;98814.50;;;10.41;100.00
53719;BME280;39616;48.872;9.390;2022-10-13T04:41:43;98811.47;;;10.48;100.00
53719;BME280;39616;48.872;9.390;2022-10-13T04:44:14;98813.06;;;10.49;100.00
53719;BME280;39616;48.872;9.390;2022-10-13T04:46:44;98806.28;;;10.51;100.00
53719;BME280;39616;48.872;9.390;2022-10-13T04:49:15;98803.28;;;10.53;100.00
53719;BME280;39616;48.872;9.390;2022-10-13T04:51:46;98805.19;;;10.52;100.00
53719;BME280;39616;48.872;9.390;2022-10-13T04:54:16;98813.06;;;10.54;100.00
53719;BME280;39616;48.872;9.390;2022-10-13T04:56:47;98800.31;;;10.54;100.00
53719;BME280;39616;48.872;9.390;2022-10-13T04:59:17;98798.16;;;10.51;100.00
53719;BME280;39616;48.872;9.390;2022-10-13T05:01:47;98801.66;;;10.52;100.00
53719;BME280;39616;48.872;9.390;2022-10-13T05:04:18;98799.81;;;10.47;100.00
53719;BME280;39616;48.872;9.390;2022-10-13T05:06:48;98794.69;;;10.46;100.00
53719;BME280;39616;48.872;9.390;2022-10-13T05:09:18;98796.56;;;10.45;100.00
53719;BME280;39616;48.872;9.390;2022-10-13T05:11:49;98786.03;;;10.44;100.00
53719;BME280;39616;48.872;9.390;2022-10-13T05:14:20;98777.66;;;10.40;100.00
53719;BME280;39616;48.872;9.390;2022-10-13T05:16:51;98787.44;;;10.36;100.00
53719;BME280;39616;48.872;9.390;2022-10-13T05:19:22;98786.94;;;10.29;100.00
53719;BME280;39616;48.872;9.390;2022-10-13T05:21:52;98797.56;;;10.25;100.00
53719;BME280;39616;48.872;9.390;2022-10-13T05:24:22;98807.81;;;10.23;100.00
53719;BME280;39616;48.872;9.390;2022-10-13T05:27:00;98808.16;;;10.16;100.00
53719;BME280;39616;48.872;9.390;2022-10-13T05:29:30;98810.09;;;10.11;100.00
53719;BME280;39616;48.872;9.390;2022-10-13T05:32:01;98805.78;;;10.05;100.00
53719;BME280;39616;48.872;9.390;2022-10-13T05:34:31;98796.31;;;10.02;100.00
53719;BME280;39616;48.872;9.390;2022-10-13T05:37:02;98804.16;;;10.04;100.00
53719;BME280;39616;48.872;9.390;2022-10-13T05:39:32;98807.41;;;10.06;100.00
53719;BME280;39616;48.872;9.390;2022-10-13T05:42:03;98812.84;;;10.06;100.00
53719;BME280;39616;48.872;9.390;2022-10-13T05:44:33;98808.72;;;10.08;100.00
53719;BME280;39616;48.872;9.390;2022-10-13T05:47:05;98813.88;;;10.10;100.00
53719;BME280;39616;48.872;9.390;2022-10-13T05:49:35;98818.25;;;10.06;100.00
53719;BME280;39616;48.872;9.390;2022-10-13T05:52:09;98817.66;;;10.14;100.00
53719;BME280;39616;48.872;9.390;2022-10-13T05:54:44;98823.56;;;10.21;100.00
53719;BME280;39616;48.872;9.390;2022-10-13T05:57:23;98821.91;;;10.30;100.00
53719;BME280;39616;48.872;9.390;2022-10-13T06:00:04;98819.97;;;10.36;100.00
53719;BME280;39616;48.872;9.390;2022-10-13T06:02:43;98810.13;;;10.45;100.00
53719;BME280;39616;48.872;9.390;2022-10-13T06:05:16;98811.72;;;10.51;100.00
53719;BME280;39616;48.872;9.390;2022-10-13T06:07:47;98802.44;;;10.57;100.00
53719;BME280;39616;48.872;9.390;2022-10-13T06:10:18;98796.47;;;10.60;100.00
53719;BME280;39616;48.872;9.390;2022-10-13T06:12:48;98798.56;;;10.69;100.00
53719;BME280;39616;48.872;9.390;2022-10-13T06:15:18;98787.63;;;10.74;100.00
53719;BME280;39616;48.872;9.390;2022-10-13T06:17:49;98780.78;;;10.81;100.00
53719;BME280;39616;48.872;9.390;2022-10-13T06:20:19;98777.16;;;10.91;100.00
53719;BME280;39616;48.872;9.390;2022-10-13T06:22:49;98781.38;;;11.02;100.00
53719;BME280;39616;48.872;9.390;2022-10-13T06:25:20;98776.13;;;11.11;100.00
53719;BME280;39616;48.872;9.390;2022-10-13T06:27:50;98778.19;;;11.19;100.00
53719;BME280;39616;48.872;9.390;2022-10-13T06:30:20;98774.91;;;11.22;100.00
53719;BME280;39616;48.872;9.390;2022-10-13T06:32:55;98780.22;;;11.32;100.00
53719;BME280;39616;48.872;9.390;2022-10-13T06:35:25;98788.72;;;11.50;100.00
53719;BME280;39616;48.872;9.390;2022-10-13T06:37:56;98791.56;;;11.58;100.00
53719;BME280;39616;48.872;9.390;2022-10-13T06:40:26;98786.91;;;11.64;100.00
53719;BME280;39616;48.872;9.390;2022-10-13T06:42:56;98797.69;;;11.69;100.00
53719;BME280;39616;48.872;9.390;2022-10-13T06:45:27;98793.88;;;11.70;100.00
53719;BME280;39616;48.872;9.390;2022-10-13T06:47:57;98788.88;;;11.77;100.00
53719;BME280;39616;48.872;9.390;2022-10-13T06:50:28;98785.53;;;11.85;100.00
53719;BME280;39616;48.872;9.390;2022-10-13T06:52:58;98785.38;;;11.96;100.00
53719;BME280;39616;48.872;9.390;2022-10-13T06:55:29;98787.75;;;12.02;100.00
53719;BME280;39616;48.872;9.390;2022-10-13T06:57:59;98789.06;;;12.05;100.00
53719;BME280;39616;48.872;9.390;2022-10-13T07:00:29;98786.84;;;12.07;100.00
53719;BME280;39616;48.872;9.390;2022-10-13T07:02:59;98787.81;;;12.16;100.00
53719;BME280;39616;48.872;9.390;2022-10-13T07:05:30;98792.88;;;12.23;100.00
53719;BME280;39616;48.872;9.390;2022-10-13T07:08:01;98798.22;;;12.28;100.00
53719;BME280;39616;48.872;9.390;2022-10-13T07:10:31;98789.13;;;12.38;100.00
53719;BME280;39616;48.872;9.390;2022-10-13T07:13:01;98783.81;;;12.46;100.00
53719;BME280;39616;48.872;9.390;2022-10-13T07:15:32;98793.50;;;12.52;100.00
53719;BME280;39616;48.872;9.390;2022-10-13T07:18:03;98787.06;;;12.62;100.00
53719;BME280;39616;48.872;9.390;2022-10-13T07:20:33;98781.03;;;12.65;100.00
53719;BME280;39616;48.872;9.390;2022-10-13T07:23:03;98778.53;;;12.69;100.00
53719;BME280;39616;48.872;9.390;2022-10-13T07:25:34;98785.78;;;12.73;100.00
53719;BME280;39616;48.872;9.390;2022-10-13T07:28:04;98788.50;;;12.73;100.00
53719;BME280;39616;48.872;9.390;2022-10-13T07:30:37;98786.59;;;12.74;100.00
53719;BME280;39616;48.872;9.390;2022-10-13T07:33:08;98791.16;;;12.78;100.00
53719;BME280;39616;48.872;9.390;2022-10-13T07:35:39;98782.47;;;12.76;100.00
53719;BME280;39616;48.872;9.390;2022-10-13T07:38:10;98787.41;;;12.88;100.00
53719;BME280;39616;48.872;9.390;2022-10-13T07:40:40;98787.94;;;12.90;100.00
53719;BME280;39616;48.872;9.390;2022-10-13T07:43:11;98779.78;;;12.90;100.00
53719;BME280;39616;48.872;9.390;2022-10-13T07:45:41;98783.72;;;12.98;100.00
53719;BME280;39616;48.872;9.390;2022-10-13T07:48:11;98777.88;;;13.04;100.00
53719;BME280;39616;48.872;9.390;2022-10-13T07:50:41;98774.06;;;13.19;100.00
53719;BME280;39616;48.872;9.390;2022-10-13T07:53:12;98776.47;;;13.21;100.00
53719;BME280;39616;48.872;9.390;2022-10-13T07:55:43;98770.31;;;13.43;100.00
53719;BME280;39616;48.872;9.390;2022-10-13T07:58:13;98771.97;;;13.80;100.00
53719;BME280;39616;48.872;9.390;2022-10-13T08:00:43;98773.66;;;14.04;100.00
53719;BME280;39616;48.872;9.390;2022-10-13T08:03:13;98776.81;;;14.19;100.00
53719;BME280;39616;48.872;9.390;2022-10-13T08:05:44;98773.28;;;14.41;99.50
53719;BME280;39616;48.872;9.390;2022-10-13T08:08:14;98771.31;;;14.33;99.00
53719;BME280;39616;48.872;9.390;2022-10-13T08:10:44;98775.41;;;14.22;100.00
53719;BME280;39616;48.872;9.390;2022-10-13T08:13:15;98775.97;;;14.10;98.53
53719;BME280;39616;48.872;9.390;2022-10-13T08:15:45;98777.66;;;14.06;100.00
53719;BME280;39616;48.872;9.390;2022-10-13T08:18:16;98773.09;;;14.15;100.00
53719;BME280;39616;48.872;9.390;2022-10-13T08:20:46;98761.34;;;14.29;99.65
53719;BME280;39616;48.872;9.390;2022-10-13T08:23:16;98766.94;;;14.32;97.74
53719;BME280;39616;48.872;9.390;2022-10-13T08:25:47;98763.94;;;14.34;97.54
53719;BME280;39616;48.872;9.390;2022-10-13T08:28:23;98757.97;;;14.32;97.33
53719;BME280;39616;48.872;9.390;2022-10-13T08:30:55;98761.81;;;14.31;99.56
53719;BME280;39616;48.872;9.390;2022-10-13T08:33:28;98750.84;;;14.44;96.98
53719;BME280;39616;48.872;9.390;2022-10-13T08:35:58;98750.16;;;14.61;95.88
53719;BME280;39616;48.872;9.390;2022-10-13T08:38:28;98738.94;;;14.63;93.72
53719;BME280;39616;48.872;9.390;2022-10-13T08:40:59;98738.97;;;14.71;92.91
53719;BME280;39616;48.872;9.390;2022-10-13T08:43:29;98743.06;;;14.83;94.45
53719;BME280;39616;48.872;9.390;2022-10-13T08:46:00;98736.16;;;15.25;92.29
53719;BME280;39616;48.872;9.390;2022-10-13T08:48:32;98741.19;;;15.49;86.59
53719;BME280;39616;48.872;9.390;2022-10-13T08:51:06;98746.72;;;15.75;85.27
53719;BME280;39616;48.872;9.390;2022-10-13T08:53:39;98738.06;;;16.08;83.29
53719;BME280;39616;48.872;9.390;2022-10-13T08:56:17;98740.59;;;16.30;82.58
53719;BME280;39616;48.872;9.390;2022-10-13T08:58:50;98743.78;;;16.76;79.62
53719;BME280;39616;48.872;9.390;2022-10-13T09:01:27;98739.41;;;17.22;75.57
53719;BME280;39616;48.872;9.390;2022-10-13T09:04:37;98735.56;;;17.44;74.61
53719;BME280;39616;48.872;9.390;2022-10-13T09:07:20;98736.00;;;17.25;74.78
53719;BME280;39616;48.872;9.390;2022-10-13T09:09:53;98736.22;;;17.11;76.43
53719;BME280;39616;48.872;9.390;2022-10-13T09:12:25;98729.75;;;17.15;75.00
53719;BME280;39616;48.872;9.390;2022-10-13T09:15:13;98736.47;;;17.27;74.54
53719;BME280;39616;48.872;9.390;2022-10-13T09:18:08;98728.31;;;17.69;73.86
53719;BME280;39616;48.872;9.390;2022-10-13T09:20:39;98733.81;;;18.10;71.85
53719;BME280;39616;48.872;9.390;2022-10-13T09:25:45;98723.41;;;18.37;69.50
53719;BME280;39616;48.872;9.390;2022-10-13T09:28:23;98728.56;;;18.39;69.10
53719;BME280;39616;48.872;9.390;2022-10-13T09:33:44;98733.78;;;18.52;70.11
53719;BME280;39616;48.872;9.390;2022-10-13T09:36:15;98734.63;;;18.44;68.44
53719;BME280;39616;48.872;9.390;2022-10-13T09:39:25;98730.94;;;18.28;68.07
53719;BME280;39616;48.872;9.390;2022-10-13T09:42:18;98745.28;;;17.92;71.01
53719;BME280;39616;48.872;9.390;2022-10-13T09:45:08;98750.25;;;17.98;71.24
53719;BME280;39616;48.872;9.390;2022-10-13T09:47:48;98738.47;;;17.47;71.84
53719;BME280;39616;48.872;9.390;2022-10-13T09:50:23;98736.38;;;17.44;73.83
53719;BME280;39616;48.872;9.390;2022-10-13T09:53:30;98738.41;;;17.26;71.27
53719;BME280;39616;48.872;9.390;2022-10-13T09:56:21;98740.72;;;16.69;75.52
53719;BME280;39616;48.872;9.390;2022-10-13T09:59:01;98743.00;;;16.58;75.88
53719;BME280;39616;48.872;9.390;2022-10-13T10:01:38;98742.84;;;16.46;75.88
53719;BME280;39616;48.872;9.390;2022-10-13T10:04:15;98735.00;;;16.18;77.84
53719;BME280;39616;48.872;9.390;2022-10-13T10:06:46;98738.06;;;16.16;78.24
53719;BME280;39616;48.872;9.390;2022-10-13T10:09:39;98740.44;;;16.27;78.73
53719;BME280;39616;48.872;9.390;2022-10-13T10:12:17;98737.72;;;16.27;79.05
53719;BME280;39616;48.872;9.390;2022-10-13T10:14:48;98726.94;;;16.39;78.52
53719;BME280;39616;48.872;9.390;2022-10-13T10:17:30;98723.25;;;16.35;79.73
53719;BME280;39616;48.872;9.390;2022-10-13T10:23:13;98736.91;;;16.26;79.58
53719;BME280;39616;48.872;9.390;2022-10-13T10:25:48;98730.63;;;16.34;80.48
53719;BME280;39616;48.872;9.390;2022-10-13T10:34:09;98720.34;;;16.23;82.85
53719;BME280;39616;48.872;9.390;2022-10-13T10:36:53;98718.44;;;16.14;81.82
53719;BME280;39616;48.872;9.390;2022-10-13T10:39:51;98725.50;;;16.15;83.74
53719;BME280;39616;48.872;9.390;2022-10-13T10:45:03;98720.69;;;15.95;83.54
53719;BME280;39616;48.872;9.390;2022-10-13T10:47:44;98721.34;;;15.92;84.88
53719;BME280;39616;48.872;9.390;2022-10-13T10:50:17;98717.47;;;16.02;83.36
53719;BME280;39616;48.872;9.390;2022-10-13T10:52:55;98716.66;;;16.01;87.01
53719;BME280;39616;48.872;9.390;2022-10-13T10:55:46;98706.03;;;16.00;82.16
53719;BME280;39616;48.872;9.390;2022-10-13T11:03:49;98696.56;;;15.80;86.73
53719;BME280;39616;48.872;9.390;2022-10-13T11:06:31;98696.06;;;15.78;84.61
53719;BME280;39616;48.872;9.390;2022-10-13T11:09:04;98685.31;;;15.73;86.42
53719;BME280;39616;48.872;9.390;2022-10-13T11:11:37;98684.63;;;15.76;88.20
53719;BME280;39616;48.872;9.390;2022-10-13T11:17:02;98680.63;;;15.82;86.37
53719;BME280;39616;48.872;9.390;2022-10-13T11:19:39;98668.72;;;15.86;83.86
53719;BME280;39616;48.872;9.390;2022-10-13T11:22:11;98666.50;;;15.80;84.87
53719;BME280;39616;48.872;9.390;2022-10-13T11:24:50;98668.41;;;15.88;83.22
53719;BME280;39616;48.872;9.390;2022-10-13T11:30:05;98661.47;;;15.90;85.68
53719;BME280;39616;48.872;9.390;2022-10-13T11:32:55;98652.00;;;15.97;83.90
53719;BME280;39616;48.872;9.390;2022-10-13T11:35:26;98656.63;;;16.13;81.67
53719;BME280;39616;48.872;9.390;2022-10-13T11:43:53;98644.88;;;16.69;79.57
53719;BME280;39616;48.872;9.390;2022-10-13T11:46:45;98641.19;;;16.64;78.86
53719;BME280;39616;48.872;9.390;2022-10-13T11:49:33;98635.59;;;16.52;78.23
53719;BME280;39616;48.872;9.390;2022-10-13T11:55:38;98632.09;;;16.43;80.62
53719;BME280;39616;48.872;9.390;2022-10-13T11:58:19;98620.34;;;16.34;80.59
53719;BME280;39616;48.872;9.390;2022-10-13T12:00:54;98616.63;;;16.38;80.17
53719;BME280;39616;48.872;9.390;2022-10-13T12:03:30;98612.59;;;16.53;78.86
53719;BME280;39616;48.872;9.390;2022-10-13T12:06:03;98618.06;;;16.53;78.50
53719;BME280;39616;48.872;9.390;2022-10-13T12:08:35;98617.53;;;16.60;78.39
53719;BME280;39616;48.872;9.390;2022-10-13T12:11:06;98621.44;;;16.50;78.72
53719;BME280;39616;48.872;9.390;2022-10-13T12:13:45;98613.53;;;16.57;76.97
53719;BME280;39616;48.872;9.390;2022-10-13T12:16:16;98610.94;;;16.52;79.09
53719;BME280;39616;48.872;9.390;2022-10-13T12:18:47;98601.09;;;16.60;77.83
53719;BME280;39616;48.872;9.390;2022-10-13T12:21:20;98590.94;;;16.60;79.67
53719;BME280;39616;48.872;9.390;2022-10-13T12:24:05;98592.69;;;16.74;77.86
53719;BME280;39616;48.872;9.390;2022-10-13T12:26:36;98593.47;;;16.83;79.76
53719;BME280;39616;48.872;9.390;2022-10-13T12:29:11;98588.72;;;16.92;77.03
53719;BME280;39616;48.872;9.390;2022-10-13T12:31:44;98592.69;;;17.03;77.13
53719;BME280;39616;48.872;9.390;2022-10-13T12:34:30;98580.84;;;16.90;77.75
53719;BME280;39616;48.872;9.390;2022-10-13T12:37:17;98579.47;;;17.05;77.00
53719;BME280;39616;48.872;9.390;2022-10-13T12:39:50;98577.69;;;17.01;77.73
53719;BME280;39616;48.872;9.390;2022-10-13T12:42:25;98577.84;;;17.04;76.52
53719;BME280;39616;48.872;9.390;2022-10-13T12:44:58;98567.81;;;17.08;75.44
53719;BME280;39616;48.872;9.390;2022-10-13T12:47:47;98564.84;;;17.01;75.07
53719;BME280;39616;48.872;9.390;2022-10-13T12:55:57;98554.47;;;17.28;76.51
53719;BME280;39616;48.872;9.390;2022-10-13T12:58:32;98550.84;;;17.36;75.02
53719;BME280;39616;48.872;9.390;2022-10-13T13:03:39;98559.72;;;17.54;74.32
53719;BME280;39616;48.872;9.390;2022-10-13T13:08:44;98550.94;;;17.27;74.38
53719;BME280;39616;48.872;9.390;2022-10-13T13:11:33;98543.16;;;17.50;73.47
53719;BME280;39616;48.872;9.390;2022-10-13T13:17:02;98537.94;;;17.57;72.26
53719;BME280;39616;48.872;9.390;2022-10-13T13:19:34;98531.50;;;17.53;72.75
53719;BME280;39616;48.872;9.390;2022-10-13T13:22:05;98532.56;;;17.61;76.94
53719;BME280;39616;48.872;9.390;2022-10-13T13:24:36;98535.56;;;17.68;73.32
53719;BME280;39616;48.872;9.390;2022-10-13T13:29:45;98535.22;;;17.70;71.40
53719;BME280;39616;48.872;9.390;2022-10-13T13:32:17;98534.00;;;17.46;73.21
53719;BME280;39616;48.872;9.390;2022-10-13T13:34:48;98527.75;;;17.58;73.62
53719;BME280;39616;48.872;9.390;2022-10-13T13:37:37;98531.28;;;17.58;72.16
53719;BME280;39616;48.872;9.390;2022-10-13T13:40:20;98532.47;;;17.36;72.98
53719;BME280;39616;48.872;9.390;2022-10-13T13:42:51;98535.94;;;17.25;73.60
53719;BME280;39616;48.872;9.390;2022-10-13T13:45:22;98542.22;;;17.25;77.45
53719;BME280;39616;48.872;9.390;2022-10-13T13:47:56;98541.44;;;17.25;75.26
53719;BME280;39616;48.872;9.390;2022-10-13T13:50:32;98537.41;;;17.22;74.11
53719;BME280;39616;48.872;9.390;2022-10-13T13:53:03;98539.09;;;17.14;74.79
53719;BME280;39616;48.872;9.390;2022-10-13T13:55:34;98534.53;;;17.19;75.52
53719;BME280;39616;48.872;9.390;2022-10-13T13:58:04;98527.19;;;17.10;76.95
53719;BME280;39616;48.872;9.390;2022-10-13T14:00:35;98532.16;;;17.17;78.60
53719;BME280;39616;48.872;9.390;2022-10-13T14:03:05;98535.81;;;17.21;79.50
53719;BME280;39616;48.872;9.390;2022-10-13T14:05:39;98534.63;;;17.31;76.02
53719;BME280;39616;48.872;9.390;2022-10-13T14:08:10;98526.59;;;17.26;77.25
53719;BME280;39616;48.872;9.390;2022-10-13T14:10:40;98534.81;;;17.26;77.68
53719;BME280;39616;48.872;9.390;2022-10-13T14:13:10;98531.47;;;17.20;77.95
53719;BME280;39616;48.872;9.390;2022-10-13T14:15:41;98535.47;;;17.23;78.15
53719;BME280;39616;48.872;9.390;2022-10-13T14:18:11;98534.09;;;17.17;78.87
53719;BME280;39616;48.872;9.390;2022-10-13T14:20:42;98521.13;;;17.05;79.39
53719;BME280;39616;48.872;9.390;2022-10-13T14:23:12;98522.59;;;17.02;78.87
53719;BME280;39616;48.872;9.390;2022-10-13T14:25:43;98524.72;;;16.97;80.92
53719;BME280;39616;48.872;9.390;2022-10-13T14:28:14;98525.78;;;16.83;81.24
53719;BME280;39616;48.872;9.390;2022-10-13T14:30:44;98530.00;;;16.81;80.50
53719;BME280;39616;48.872;9.390;2022-10-13T14:33:14;98516.97;;;16.78;81.26
53719;BME280;39616;48.872;9.390;2022-10-13T14:35:48;98520.66;;;16.73;81.34
53719;BME280;39616;48.872;9.390;2022-10-13T14:38:18;98519.44;;;16.62;81.80
53719;BME280;39616;48.872;9.390;2022-10-13T14:40:48;98520.81;;;16.47;84.80
53719;BME280;39616;48.872;9.390;2022-10-13T14:43:19;98508.59;;;16.45;85.72